Terminal Aerodrome Forecast
Issued by NWS

Home | Current Version | Previous Version | Text Only | Print | Product List | Glossary On
Versions: 1 2 3 4 5 6 7 8 9 10 11 12 13 14 15 16 17
000
FTUS46 KMFR 210100 AAA
TAFOTH
TAF AMD
KOTH 210159Z 2102/2124 29010KT P6SM OVC005
     FM210400 VRB03KT 5SM BR OVC004
     FM210700 17003KT 1SM BR VCFG OVC003
     FM211700 25009KT 5SM BR OVC007=

USA.gov is the U.S. government's official web portal to all federal, state and local government web resources and services.